Time;durP1;ratioP1;P1;durP2;ratioP2;P2;SDS_P1;SDS_P2;PMS_P1;PMS_P2;Temp;Humidity;BMP_temperature;BMP_pressure;BME280_temperature;BME280_humidity;BME280_pressure;Samples;Min_cycle;Max_cycle;Signal;HPM_P1;HPM_P2
2020/12/01 00:02:24;;;;;;;0.40;0.40;;;2.40;99.90;;;;;;5069811;28;20207;-87
2020/12/01 00:04:51;;;;;;;0.40;0.40;;;2.40;99.90;;;;;;5069280;28;20265;-87
2020/12/01 00:07:17;;;;;;;0.40;0.40;;;2.40;99.90;;;;;;5069826;28;20199;-85
2020/12/01 00:09:43;;;;;;;0.40;0.40;;;2.40;99.90;;;;;;5069711;28;20661;-87
2020/12/01 00:12:11;;;;;;;0.40;0.40;;;2.40;99.90;;;;;;5069396;28;20297;-87
2020/12/01 00:14:37;;;;;;;0.40;0.40;;;2.40;99.90;;;;;;5069359;28;20195;-87
2020/12/01 00:17:03;;;;;;;0.40;0.40;;;2.40;99.90;;;;;;5069594;28;20227;-87
2020/12/01 00:19:29;;;;;;;0.40;0.40;;;2.50;99.90;;;;;;5069587;28;20199;-87
2020/12/01 00:21:55;;;;;;;0.40;0.40;;;2.50;99.90;;;;;;5069036;28;20203;-88
2020/12/01 00:24:21;;;;;;;0.40;0.40;;;2.50;99.90;;;;;;5069495;28;20199;-88
2020/12/01 00:26:48;;;;;;;0.40;0.40;;;2.50;99.90;;;;;;5069240;28;20727;-88
2020/12/01 00:29:15;;;;;;;0.40;0.40;;;2.50;99.90;;;;;;5069611;28;20622;-89
2020/12/01 00:31:42;;;;;;;0.40;0.40;;;2.50;99.90;;;;;;5069076;28;20208;-87
2020/12/01 00:34:09;;;;;;;0.40;0.40;;;2.50;99.90;;;;;;5069271;28;20662;-88
2020/12/01 00:36:35;;;;;;;0.40;0.40;;;2.50;99.90;;;;;;5069296;28;20249;-88
2020/12/01 00:39:01;;;;;;;0.40;0.40;;;2.50;99.90;;;;;;5069051;28;20204;-87
2020/12/01 00:41:27;;;;;;;0.40;0.40;;;2.50;99.90;;;;;;5069537;28;20211;-87
2020/12/01 00:43:53;;;;;;;0.40;0.40;;;2.50;99.90;;;;;;5069289;28;20332;-88
2020/12/01 00:46:20;;;;;;;0.40;0.40;;;2.50;99.90;;;;;;5069363;28;20593;-88
2020/12/01 00:48:47;;;;;;;0.40;0.40;;;2.50;99.90;;;;;;5068801;28;20208;-87
2020/12/01 00:51:14;;;;;;;0.40;0.40;;;2.50;99.90;;;;;;5069378;28;20558;-87
2020/12/01 00:53:40;;;;;;;0.40;0.40;;;2.50;99.90;;;;;;5069076;28;20232;-88
2020/12/01 00:56:06;;;;;;;0.40;0.40;;;2.50;99.90;;;;;;5069053;28;20195;-87
2020/12/01 00:58:33;;;;;;;0.40;0.40;;;2.60;99.90;;;;;;5069112;28;20253;-88
2020/12/01 01:00:59;;;;;;;0.40;0.40;;;2.60;99.90;;;;;;5069270;28;20200;-87
2020/12/01 01:03:26;;;;;;;0.40;0.40;;;2.60;99.90;;;;;;5069304;28;20204;-87
2020/12/01 01:05:52;;;;;;;0.40;0.40;;;2.50;99.90;;;;;;5068872;28;20216;-88
2020/12/01 01:08:18;;;;;;;0.40;0.40;;;2.60;99.90;;;;;;5069316;28;20599;-87
2020/12/01 01:10:44;;;;;;;0.40;0.40;;;2.60;99.90;;;;;;5068870;28;20261;-88
2020/12/01 01:13:11;;;;;;;0.40;0.40;;;2.60;99.90;;;;;;5069351;28;20238;-88
2020/12/01 01:15:37;;;;;;;0.40;0.40;;;2.50;99.90;;;;;;5068765;28;20227;-88
2020/12/01 01:18:04;;;;;;;0.40;0.40;;;2.50;99.90;;;;;;5068989;28;20204;-87
2020/12/01 01:20:31;;;;;;;0.40;0.40;;;2.50;99.90;;;;;;5072520;28;20210;-87
2020/12/01 01:22:58;;;;;;;0.40;0.40;;;2.50;99.90;;;;;;5072093;28;20593;-87
2020/12/01 01:25:25;;;;;;;0.40;0.40;;;2.50;99.90;;;;;;5072421;28;20246;-87
2020/12/01 01:27:51;;;;;;;0.40;0.40;;;2.60;99.90;;;;;;5072261;28;20207;-87
2020/12/01 01:30:20;;;;;;;0.40;0.40;;;2.50;99.90;;;;;;5072364;28;20203;-87
2020/12/01 01:32:47;;;;;;;0.40;0.40;;;2.60;99.90;;;;;;5072425;28;20277;-87
2020/12/01 01:35:14;;;;;;;0.40;0.40;;;2.50;99.90;;;;;;5072668;28;20528;-87
2020/12/01 01:37:41;;;;;;;0.40;0.40;;;2.50;99.90;;;;;;5072283;28;20200;-87
2020/12/01 01:40:08;;;;;;;0.40;0.40;;;2.50;99.90;;;;;;5072566;28;20237;-87
2020/12/01 01:42:34;;;;;;;0.40;0.40;;;2.50;99.90;;;;;;5072072;28;20199;-87
2020/12/01 01:45:01;;;;;;;0.40;0.40;;;2.50;99.90;;;;;;5071696;28;20206;-86
2020/12/01 01:47:29;;;;;;;0.40;0.40;;;2.50;99.90;;;;;;5072165;28;20257;-87
2020/12/01 01:50:00;;;;;;;0.40;0.40;;;2.50;99.90;;;;;;5071903;28;20211;-87
2020/12/01 01:52:30;;;;;;;0.40;0.40;;;2.50;99.90;;;;;;5072155;28;20288;-87
2020/12/01 01:55:02;;;;;;;0.40;0.40;;;2.50;99.90;;;;;;5072218;28;20658;-87
2020/12/01 01:57:30;;;;;;;0.40;0.40;;;2.50;99.90;;;;;;5072279;28;20278;-87
2020/12/01 01:59:57;;;;;;;0.40;0.40;;;2.50;99.90;;;;;;5072115;28;20549;-87
2020/12/01 02:02:23;;;;;;;0.40;0.40;;;2.50;99.90;;;;;;5071787;28;20261;-87
2020/12/01 02:04:49;;;;;;;0.40;0.40;;;2.50;99.90;;;;;;5071782;28;20196;-87
2020/12/01 02:07:18;;;;;;;0.40;0.40;;;2.50;99.90;;;;;;5071988;28;20204;-87
2020/12/01 02:09:48;;;;;;;0.40;0.40;;;2.50;99.90;;;;;;5071849;28;20799;-87
2020/12/01 02:12:17;;;;;;;0.40;0.40;;;2.50;99.90;;;;;;5071636;28;20262;-87
2020/12/01 02:14:47;;;;;;;0.40;0.40;;;2.50;99.90;;;;;;5071862;28;20203;-87
2020/12/01 02:17:21;;;;;;;0.40;0.40;;;2.50;99.90;;;;;;5071980;28;20204;-87
2020/12/01 02:19:47;;;;;;;0.40;0.40;;;2.50;99.90;;;;;;5071513;28;20253;-86
2020/12/01 02:22:17;;;;;;;0.40;0.40;;;2.50;99.90;;;;;;5071630;28;20277;-86
2020/12/01 02:24:44;;;;;;;0.40;0.40;;;2.50;99.90;;;;;;5071701;28;20253;-87
2020/12/01 02:27:13;;;;;;;0.47;0.47;;;2.50;99.90;;;;;;5071614;28;20344;-87
2020/12/01 02:29:44;;;;;;;0.40;0.40;;;2.60;99.90;;;;;;5071250;28;20220;-87
2020/12/01 02:32:10;;;;;;;0.40;0.40;;;2.50;99.90;;;;;;5071249;28;20363;-86
2020/12/01 02:34:41;;;;;;;0.40;0.40;;;2.50;99.90;;;;;;5071341;28;20209;-87
2020/12/01 02:37:08;;;;;;;0.40;0.40;;;2.50;99.90;;;;;;5071426;28;20200;-86
2020/12/01 02:39:35;;;;;;;0.40;0.40;;;2.50;99.90;;;;;;5071162;28;20195;-87
2020/12/01 02:42:06;;;;;;;0.40;0.40;;;2.50;99.90;;;;;;5071372;28;21027;-87
2020/12/01 02:44:33;;;;;;;0.40;0.40;;;2.50;99.90;;;;;;5071234;28;20203;-87
2020/12/01 02:47:01;;;;;;;0.43;0.43;;;2.50;99.90;;;;;;5070818;28;20234;-87
2020/12/01 02:49:28;;;;;;;0.40;0.40;;;2.50;99.90;;;;;;5071030;28;20203;-87
2020/12/01 02:51:54;;;;;;;0.40;0.40;;;2.60;99.90;;;;;;5070839;28;20616;-87
2020/12/01 02:54:20;;;;;;;0.50;0.50;;;2.50;99.90;;;;;;5070875;28;20257;-87
2020/12/01 02:56:46;;;;;;;0.40;0.40;;;2.50;99.90;;;;;;5070923;28;20207;-87
2020/12/01 02:59:13;;;;;;;0.40;0.40;;;2.50;99.90;;;;;;5071211;28;20203;-87
2020/12/01 03:01:40;;;;;;;0.40;0.40;;;2.50;99.90;;;;;;5070711;28;20261;-87
2020/12/01 03:04:07;;;;;;;0.40;0.40;;;2.50;99.90;;;;;;5070474;28;20723;-87
2020/12/01 03:06:33;;;;;;;0.50;0.50;;;2.50;99.90;;;;;;5070731;28;20261;-87
2020/12/01 03:08:59;;;;;;;0.40;0.40;;;2.60;99.90;;;;;;5070501;28;20203;-87
2020/12/01 03:11:25;;;;;;;0.40;0.40;;;2.50;99.90;;;;;;5070016;28;20487;-87
2020/12/01 03:13:51;;;;;;;0.40;0.40;;;2.50;99.90;;;;;;5070393;28;20235;-87
2020/12/01 03:16:17;;;;;;;0.43;0.43;;;2.60;99.90;;;;;;5070460;28;20200;-87
2020/12/01 03:18:46;;;;;;;0.40;0.40;;;2.50;99.90;;;;;;5070245;28;20553;-88
2020/12/01 03:21:14;;;;;;;0.40;0.40;;;2.50;99.90;;;;;;5070328;28;20608;-87
2020/12/01 03:23:41;;;;;;;0.40;0.40;;;2.50;99.90;;;;;;5070257;28;20294;-87
2020/12/01 03:26:07;;;;;;;0.40;0.40;;;2.50;99.90;;;;;;5069932;28;20483;-87
2020/12/01 03:28:34;;;;;;;0.50;0.50;;;2.60;99.90;;;;;;5070285;28;20469;-86
2020/12/01 03:31:00;;;;;;;0.40;0.40;;;2.50;99.90;;;;;;5070003;28;20564;-87
2020/12/01 03:33:27;;;;;;;0.40;0.40;;;2.50;99.90;;;;;;5070182;28;20227;-87
2020/12/01 03:35:54;;;;;;;0.40;0.40;;;2.60;99.90;;;;;;5069860;28;20760;-87
2020/12/01 03:38:21;;;;;;;0.40;0.40;;;2.50;99.90;;;;;;5070297;28;20257;-87
2020/12/01 03:40:47;;;;;;;0.40;0.40;;;2.50;99.90;;;;;;5069687;28;20208;-87
2020/12/01 03:43:14;;;;;;;0.40;0.40;;;2.60;99.90;;;;;;5069826;28;20341;-87
2020/12/01 03:45:41;;;;;;;0.50;0.50;;;2.60;99.90;;;;;;5069865;28;20260;-86
2020/12/01 03:48:07;;;;;;;0.40;0.40;;;2.60;99.90;;;;;;5069927;28;20204;-87
2020/12/01 03:50:34;;;;;;;0.40;0.40;;;2.60;99.90;;;;;;5069819;28;20195;-87
2020/12/01 03:53:02;;;;;;;0.40;0.40;;;2.50;99.90;;;;;;5069425;28;20886;-87
2020/12/01 03:55:28;;;;;;;0.40;0.40;;;2.60;99.90;;;;;;5069910;28;20249;-86
2020/12/01 03:57:55;;;;;;;0.40;0.40;;;2.60;99.90;;;;;;5069695;28;20229;-87
2020/12/01 04:00:23;;;;;;;0.40;0.40;;;2.60;99.90;;;;;;5069687;28;20208;-87
2020/12/01 04:02:50;;;;;;;0.50;0.50;;;2.60;99.90;;;;;;5069687;28;20207;-87
2020/12/01 04:05:17;;;;;;;0.40;0.40;;;2.60;99.90;;;;;;5069920;28;20196;-87
2020/12/01 04:07:44;;;;;;;0.50;0.50;;;2.60;99.90;;;;;;5069539;28;20206;-87
2020/12/01 04:10:15;;;;;;;0.50;0.50;;;2.60;99.90;;;;;;5069388;28;20257;-87
2020/12/01 04:12:41;;;;;;;0.50;0.50;;;2.60;99.90;;;;;;5069610;28;20235;-87
2020/12/01 04:15:07;;;;;;;0.50;0.50;;;2.60;99.90;;;;;;5069623;28;20208;-87
2020/12/01 04:17:34;;;;;;;0.40;0.40;;;2.60;99.90;;;;;;5069821;28;20203;-87
2020/12/01 04:20:04;;;;;;;0.50;0.50;;;2.60;99.90;;;;;;5069860;28;20200;-87
2020/12/01 04:22:30;;;;;;;0.50;0.50;;;2.60;99.90;;;;;;5069646;28;20211;-88
2020/12/01 04:24:56;;;;;;;0.50;0.50;;;2.60;99.90;;;;;;5069510;28;20677;-87
2020/12/01 04:27:23;;;;;;;0.50;0.50;;;2.60;99.90;;;;;;5069613;28;20196;-87
2020/12/01 04:29:49;;;;;;;0.50;0.50;;;2.60;99.90;;;;;;5069221;28;20653;-87
2020/12/01 04:32:16;;;;;;;0.50;0.50;;;2.60;99.90;;;;;;5069393;28;20676;-87
2020/12/01 04:34:42;;;;;;;0.50;0.50;;;2.60;99.90;;;;;;5069609;28;20261;-88
2020/12/01 04:37:08;;;;;;;0.40;0.40;;;2.60;99.90;;;;;;5069757;28;20541;-87
2020/12/01 04:39:34;;;;;;;0.50;0.50;;;2.60;99.90;;;;;;5069746;28;20712;-87
2020/12/01 04:42:01;;;;;;;0.40;0.40;;;2.60;99.90;;;;;;5069691;28;20207;-87
2020/12/01 04:44:32;;;;;;;0.47;0.47;;;2.60;99.90;;;;;;5069618;28;20204;-87
2020/12/01 04:46:59;;;;;;;0.50;0.50;;;2.60;99.90;;;;;;5069542;28;20253;-87
2020/12/01 04:49:29;;;;;;;0.50;0.50;;;2.60;99.90;;;;;;5070113;28;20249;-87
2020/12/01 04:52:15;;;;;;;0.47;0.47;;;2.60;99.90;;;;;;5069139;28;20199;-87
2020/12/01 04:55:16;;;;;;;0.50;0.50;;;2.60;99.90;;;;;;5072428;28;20203;-87
2020/12/01 04:58:13;;;;;;;0.40;0.40;;;2.60;99.90;;;;;;5072995;28;20199;-88
2020/12/01 05:00:53;;;;;;;0.40;0.40;;;2.60;99.90;;;;;;5073177;28;20211;-87
2020/12/01 05:03:33;;;;;;;0.50;0.50;;;2.60;99.90;;;;;;5073278;28;20573;-87
2020/12/01 05:06:21;;;;;;;0.50;0.50;;;2.60;99.90;;;;;;5073003;28;20207;-88
2020/12/01 05:08:55;;;;;;;0.50;0.50;;;2.60;99.90;;;;;;5072890;28;20195;-88
2020/12/01 05:11:31;;;;;;;0.50;0.50;;;2.70;99.90;;;;;;5072915;28;20379;-87
2020/12/01 05:14:06;;;;;;;0.50;0.50;;;2.60;99.90;;;;;;5072564;28;20277;-87
2020/12/01 05:16:56;;;;;;;0.40;0.40;;;2.60;99.90;;;;;;5073230;28;20627;-87
2020/12/01 05:19:35;;;;;;;0.43;0.43;;;2.60;99.90;;;;;;5072911;28;20218;-87
2020/12/01 05:22:02;;;;;;;0.47;0.47;;;2.60;99.90;;;;;;5072783;28;20226;-86
2020/12/01 05:24:44;;;;;;;0.50;0.50;;;2.60;99.90;;;;;;5073156;28;20203;-87
2020/12/01 05:27:21;;;;;;;0.50;0.50;;;2.60;99.90;;;;;;5072849;28;20226;-87
2020/12/01 05:30:03;;;;;;;0.50;0.50;;;2.60;99.90;;;;;;5072852;28;20207;-88
2020/12/01 05:32:35;;;;;;;0.50;0.50;;;2.60;99.90;;;;;;5072704;28;20207;-88
2020/12/01 05:35:17;;;;;;;0.50;0.50;;;2.60;99.90;;;;;;5072161;28;20207;-88
2020/12/01 05:37:51;;;;;;;0.50;0.50;;;2.70;99.90;;;;;;5072447;28;20203;-88
2020/12/01 05:40:18;;;;;;;0.50;0.50;;;2.70;99.90;;;;;;5072392;28;20539;-88
2020/12/01 05:42:45;;;;;;;0.40;0.40;;;2.60;99.90;;;;;;5072351;28;20204;-88
2020/12/01 05:45:18;;;;;;;0.40;0.40;;;2.70;99.90;;;;;;5072340;28;20670;-87
2020/12/01 05:47:52;;;;;;;0.43;0.43;;;2.70;99.90;;;;;;5072499;28;20200;-87
2020/12/01 05:50:23;;;;;;;0.50;0.50;;;2.70;99.90;;;;;;5072085;28;20563;-87
2020/12/01 05:52:54;;;;;;;0.40;0.40;;;2.70;99.90;;;;;;5071979;28;20230;-88
2020/12/01 05:55:23;;;;;;;0.50;0.50;;;2.70;99.90;;;;;;5071909;28;20207;-88
2020/12/01 05:57:58;;;;;;;0.50;0.50;;;2.70;99.90;;;;;;5071939;28;20261;-88
2020/12/01 06:00:30;;;;;;;0.47;0.47;;;2.70;99.90;;;;;;5072162;28;20203;-87
2020/12/01 06:03:08;;;;;;;0.50;0.50;;;2.70;99.90;;;;;;5070270;28;20211;-86
2020/12/01 06:05:41;;;;;;;0.50;0.50;;;2.60;99.90;;;;;;5070161;28;20260;-87
2020/12/01 06:08:29;;;;;;;0.50;0.50;;;3.70;99.90;;;;;;5072225;28;20203;-88
2020/12/01 06:11:02;;;;;;;0.50;0.50;;;2.70;99.90;;;;;;5071998;28;20236;-87
2020/12/01 06:13:33;;;;;;;0.40;0.40;;;2.60;99.90;;;;;;5073641;28;20305;-89
2020/12/01 06:16:18;;;;;;;0.50;0.50;;;2.70;99.90;;;;;;5072134;28;20215;-87
2020/12/01 06:18:52;;;;;;;0.40;0.40;;;2.70;99.90;;;;;;5071686;28;20588;-87
2020/12/01 06:21:38;;;;;;;0.50;0.50;;;2.70;99.90;;;;;;5071296;28;20203;-87
2020/12/01 06:24:28;;;;;;;0.50;0.50;;;2.70;99.90;;;;;;5073312;28;20203;-88
2020/12/01 06:27:18;;;;;;;0.40;0.40;;;2.70;99.90;;;;;;5073643;28;20199;-88
2020/12/01 06:30:11;;;;;;;0.50;0.50;;;2.70;99.90;;;;;;5043744;28;20200;-87
2020/12/01 06:33:04;;;;;;;0.50;0.50;;;2.60;99.90;;;;;;5073312;28;20234;-88
2020/12/01 06:36:09;;;;;;;0.40;0.40;;;2.70;99.90;;;;;;5065366;28;20603;-87
2020/12/01 06:38:50;;;;;;;0.50;0.50;;;2.60;99.90;;;;;;5073174;28;20206;-87
2020/12/01 06:41:19;;;;;;;0.40;0.40;;;2.60;99.90;;;;;;5073333;28;20203;-87
2020/12/01 06:43:48;;;;;;;0.40;0.40;;;2.60;99.90;;;;;;5072936;28;20204;-87
2020/12/01 06:46:32;;;;;;;0.40;0.40;;;2.70;99.90;;;;;;5073236;28;20195;-88
2020/12/01 06:49:02;;;;;;;0.50;0.50;;;2.70;99.90;;;;;;5073118;28;20212;-88
2020/12/01 06:51:29;;;;;;;0.50;0.50;;;2.70;99.90;;;;;;5072988;28;20203;-87
2020/12/01 06:54:07;;;;;;;0.50;0.50;;;2.70;99.90;;;;;;5071989;28;20891;-87
2020/12/01 06:56:33;;;;;;;0.50;0.50;;;2.60;99.90;;;;;;5072991;28;20261;-87
2020/12/01 06:59:11;;;;;;;0.40;0.40;;;2.60;99.90;;;;;;5072756;28;20203;-88
2020/12/01 07:01:39;;;;;;;0.40;0.40;;;2.60;99.90;;;;;;5072920;28;20203;-87
2020/12/01 07:04:29;;;;;;;0.50;0.50;;;2.70;99.90;;;;;;5071949;28;20196;-88
2020/12/01 07:06:59;;;;;;;0.50;0.50;;;2.60;99.90;;;;;;5070843;28;20192;-88
2020/12/01 07:09:28;;;;;;;0.40;0.40;;;2.70;99.90;;;;;;5069140;28;20684;-88
2020/12/01 07:12:23;;;;;;;0.50;0.50;;;2.70;99.90;;;;;;5071326;28;20226;-88
2020/12/01 07:14:56;;;;;;;0.50;0.50;;;2.70;99.90;;;;;;5069639;28;20231;-88
2020/12/01 07:17:30;;;;;;;0.40;0.40;;;2.70;99.90;;;;;;5070868;28;20200;-87
2020/12/01 07:19:58;;;;;;;0.47;0.47;;;2.60;99.90;;;;;;5072226;28;20199;-86
2020/12/01 07:22:37;;;;;;;0.50;0.50;;;2.70;99.90;;;;;;5072451;28;20313;-87
2020/12/01 07:25:10;;;;;;;0.50;0.50;;;2.70;99.90;;;;;;5072419;28;20220;-87
2020/12/01 07:27:47;;;;;;;0.50;0.50;;;2.70;99.90;;;;;;5072561;28;20691;-87
2020/12/01 07:30:17;;;;;;;0.40;0.40;;;2.70;99.90;;;;;;5072482;28;20237;-86
2020/12/01 07:32:48;;;;;;;0.47;0.47;;;2.70;99.90;;;;;;5072240;28;20202;-86
2020/12/01 07:35:29;;;;;;;0.50;0.50;;;2.70;99.90;;;;;;5072623;28;20203;-87
2020/12/01 07:38:04;;;;;;;0.50;0.50;;;2.70;99.90;;;;;;5072079;28;20264;-87
2020/12/01 07:40:41;;;;;;;0.50;0.50;;;2.70;99.90;;;;;;5072485;28;20249;-87
2020/12/01 07:43:11;;;;;;;0.50;0.50;;;2.80;99.90;;;;;;5072196;28;20199;-86
2020/12/01 07:45:37;;;;;;;0.40;0.40;;;2.70;99.90;;;;;;5072670;28;20562;-87
2020/12/01 07:48:04;;;;;;;0.43;0.43;;;2.70;99.90;;;;;;5072152;28;20261;-87
2020/12/01 07:50:32;;;;;;;0.50;0.50;;;2.70;99.90;;;;;;5072138;28;20615;-86
2020/12/01 07:53:02;;;;;;;0.40;0.40;;;2.70;99.90;;;;;;5072124;28;20227;-87
2020/12/01 07:55:37;;;;;;;0.50;0.50;;;2.70;99.90;;;;;;5072540;28;20292;-87
2020/12/01 07:58:06;;;;;;;0.50;0.50;;;2.70;99.90;;;;;;5072032;28;20203;-87
2020/12/01 08:00:33;;;;;;;0.50;0.50;;;2.80;99.90;;;;;;5071983;28;20215;-87
2020/12/01 08:03:09;;;;;;;0.50;0.50;;;2.80;99.90;;;;;;5071900;28;20219;-87
2020/12/01 08:05:35;;;;;;;0.50;0.50;;;2.80;99.90;;;;;;5072009;28;20208;-87
2020/12/01 08:08:01;;;;;;;0.50;0.50;;;2.80;99.90;;;;;;5071675;28;20257;-87
2020/12/01 08:10:29;;;;;;;0.50;0.50;;;2.80;99.90;;;;;;5071791;28;20384;-87
2020/12/01 08:13:05;;;;;;;0.50;0.50;;;2.80;99.90;;;;;;5071616;28;20234;-86
2020/12/01 08:15:31;;;;;;;0.50;0.50;;;2.80;99.90;;;;;;5072325;28;20668;-87
2020/12/01 08:18:02;;;;;;;0.50;0.50;;;2.80;99.90;;;;;;5071588;28;20211;-87
2020/12/01 08:20:29;;;;;;;0.40;0.40;;;2.80;99.90;;;;;;5070933;28;20207;-87
2020/12/01 08:23:05;;;;;;;0.50;0.50;;;2.90;99.90;;;;;;5070381;28;20574;-87
2020/12/01 08:25:32;;;;;;;0.50;0.50;;;2.80;99.90;;;;;;5070571;28;20289;-86
2020/12/01 08:28:16;;;;;;;0.50;0.50;;;2.80;99.90;;;;;;5072037;28;20253;-87
2020/12/01 08:30:52;;;;;;;0.40;0.40;;;2.90;99.90;;;;;;5074291;28;20277;-86
2020/12/01 08:33:28;;;;;;;0.50;0.50;;;2.90;99.90;;;;;;5075792;28;20223;-86
2020/12/01 08:36:03;;;;;;;0.50;0.50;;;2.90;99.90;;;;;;5076368;28;20237;-86
2020/12/01 08:38:48;;;;;;;0.50;0.50;;;2.90;99.90;;;;;;5074926;28;20191;-86
2020/12/01 08:41:26;;;;;;;0.50;0.50;;;2.90;99.90;;;;;;5074143;28;20211;-86
2020/12/01 08:43:56;;;;;;;0.40;0.40;;;2.90;99.90;;;;;;5073448;28;20194;-86
2020/12/01 08:46:24;;;;;;;0.50;0.50;;;2.90;99.90;;;;;;5061519;28;20199;-87
2020/12/01 08:49:06;;;;;;;0.40;0.40;;;3.00;99.90;;;;;;5073200;28;20654;-87
2020/12/01 08:51:35;;;;;;;0.50;0.50;;;3.00;99.90;;;;;;5072677;28;20200;-87
2020/12/01 08:54:12;;;;;;;0.50;0.50;;;3.00;99.90;;;;;;5071052;28;20631;-87
2020/12/01 08:57:12;;;;;;;0.50;0.50;;;3.00;99.90;;;;;;5070599;28;20191;-87
2020/12/01 08:59:43;;;;;;;0.50;0.50;;;3.00;99.90;;;;;;5072117;28;20191;-86
2020/12/01 09:02:12;;;;;;;0.50;0.50;;;3.00;99.90;;;;;;5071578;28;20217;-87
2020/12/01 09:04:39;;;;;;;0.40;0.40;;;3.10;99.90;;;;;;5075041;28;20206;-87
2020/12/01 09:07:20;;;;;;;0.50;0.50;;;3.10;99.90;;;;;;5073052;28;20289;-88
2020/12/01 09:09:47;;;;;;;0.40;0.40;;;3.10;99.90;;;;;;5072251;28;20199;-87
2020/12/01 09:12:23;;;;;;;0.40;0.40;;;3.20;99.90;;;;;;5072613;28;20223;-87
2020/12/01 09:15:02;;;;;;;0.50;0.50;;;3.20;99.90;;;;;;5073930;28;20638;-86
2020/12/01 09:17:37;;;;;;;0.50;0.50;;;3.10;99.90;;;;;;5074503;28;20256;-86
2020/12/01 09:20:23;;;;;;;0.50;0.50;;;3.20;99.90;;;;;;5073974;28;20206;-86
2020/12/01 09:22:49;;;;;;;0.50;0.50;;;3.10;99.90;;;;;;5074018;28;20282;-87
2020/12/01 09:25:20;;;;;;;0.50;0.50;;;3.20;99.90;;;;;;5074317;28;20302;-87
2020/12/01 09:27:48;;;;;;;0.47;0.47;;;3.20;99.90;;;;;;5073779;28;20200;-87
2020/12/01 09:30:26;;;;;;;0.40;0.40;;;3.10;99.90;;;;;;5074134;28;20286;-87
2020/12/01 09:32:52;;;;;;;0.50;0.50;;;3.20;99.90;;;;;;5073881;28;20628;-87
2020/12/01 09:35:19;;;;;;;0.50;0.50;;;3.20;99.90;;;;;;5073665;28;20199;-87
2020/12/01 09:37:45;;;;;;;0.50;0.50;;;3.20;99.90;;;;;;5073754;28;20629;-87
2020/12/01 09:40:12;;;;;;;0.50;0.50;;;3.20;99.90;;;;;;5072790;28;20269;-87
2020/12/01 09:42:39;;;;;;;0.40;0.40;;;3.20;99.90;;;;;;5074080;28;20207;-86
2020/12/01 09:47:54;;;;;;;0.50;0.50;;;3.20;99.90;;;;;;5073020;28;20204;-87
2020/12/01 09:50:23;;;;;;;0.40;0.40;;;3.30;99.90;;;;;;5073587;28;20196;-87
2020/12/01 09:53:02;;;;;;;0.50;0.50;;;3.30;99.90;;;;;;5073371;28;20257;-87
2020/12/01 09:55:44;;;;;;;0.45;0.45;;;3.30;99.90;;;;;;5073612;28;20199;-87
2020/12/01 09:58:21;;;;;;;0.50;0.50;;;3.30;99.90;;;;;;5071983;28;20196;-86
2020/12/01 10:09:07;;;;;;;0.50;0.50;;;3.30;99.90;;;;;;5035257;28;20203;-87
2020/12/01 10:11:51;;;;;;;0.50;0.50;;;3.30;99.90;;;;;;5072905;28;20223;-87
2020/12/01 10:15:25;;;;;;;0.45;0.45;;;3.40;99.90;;;;;;5073071;28;20235;-86
2020/12/01 10:25:54;;;;;;;0.40;0.40;;;3.40;99.90;;;;;;5073111;28;20198;-87
2020/12/01 10:34:10;;;;;;;0.47;0.47;;;3.40;99.90;;;;;;5072517;28;20234;-87
2020/12/01 10:36:37;;;;;;;0.50;0.50;;;3.50;99.90;;;;;;5073041;28;20203;-87
2020/12/01 10:39:04;;;;;;;0.50;0.50;;;3.50;99.90;;;;;;5072431;28;20211;-88
2020/12/01 10:41:32;;;;;;;0.50;0.50;;;3.50;99.90;;;;;;5072798;28;20199;-87
2020/12/01 10:43:59;;;;;;;0.50;0.50;;;3.50;99.90;;;;;;5072618;28;20214;-87
2020/12/01 10:46:25;;;;;;;0.50;0.50;;;3.50;99.90;;;;;;5072567;28;20245;-88
2020/12/01 10:48:52;;;;;;;0.40;0.40;;;3.50;99.90;;;;;;5072138;28;20253;-88
2020/12/01 10:51:18;;;;;;;0.40;0.40;;;3.50;99.90;;;;;;5072148;28;20256;-87
2020/12/01 10:53:44;;;;;;;0.50;0.50;;;3.60;99.90;;;;;;5071801;28;20228;-87
2020/12/01 10:56:11;;;;;;;0.40;0.40;;;3.70;99.90;;;;;;5072030;28;20199;-87
2020/12/01 10:58:37;;;;;;;0.40;0.40;;;3.70;99.90;;;;;;5072454;28;20261;-88
2020/12/01 11:01:04;;;;;;;0.50;0.50;;;3.80;99.90;;;;;;5072376;28;20203;-87
2020/12/01 11:03:30;;;;;;;0.50;0.50;;;3.80;99.90;;;;;;5072122;28;20215;-87
2020/12/01 11:05:56;;;;;;;0.40;0.40;;;3.90;99.90;;;;;;5072236;28;20603;-87
2020/12/01 11:08:22;;;;;;;0.40;0.40;;;3.90;99.90;;;;;;5072570;28;20210;-87
2020/12/01 11:10:48;;;;;;;0.50;0.50;;;3.90;99.90;;;;;;5071001;28;20245;-87
2020/12/01 11:13:16;;;;;;;0.43;0.43;;;3.80;99.90;;;;;;5070544;28;20253;-87
2020/12/01 11:15:42;;;;;;;0.50;0.50;;;3.90;99.90;;;;;;5070817;28;20200;-87
2020/12/01 11:18:08;;;;;;;0.50;0.50;;;4.00;99.90;;;;;;5070901;28;20195;-87
2020/12/01 11:20:35;;;;;;;0.40;0.40;;;4.00;99.90;;;;;;5071240;28;20195;-86
2020/12/01 11:23:01;;;;;;;0.40;0.40;;;4.10;99.90;;;;;;5070621;28;20200;-87
2020/12/01 11:25:27;;;;;;;0.50;0.50;;;4.00;99.90;;;;;;5070529;28;20654;-87
2020/12/01 11:27:54;;;;;;;0.50;0.50;;;4.10;99.90;;;;;;5071112;28;20261;-87
2020/12/01 11:30:23;;;;;;;0.50;0.50;;;4.10;99.90;;;;;;5071511;28;20254;-87
2020/12/01 11:32:49;;;;;;;0.50;0.50;;;4.10;99.90;;;;;;5071302;28;20306;-87
2020/12/01 11:35:17;;;;;;;0.50;0.50;;;4.20;99.90;;;;;;5071510;28;20228;-87
2020/12/01 11:37:44;;;;;;;0.50;0.50;;;4.10;99.90;;;;;;5071663;28;20261;-86
2020/12/01 11:40:11;;;;;;;0.50;0.50;;;4.20;99.90;;;;;;5071482;28;20295;-87
2020/12/01 11:42:37;;;;;;;0.40;0.40;;;4.10;99.90;;;;;;5071630;28;20265;-87
2020/12/01 11:45:04;;;;;;;0.40;0.40;;;4.10;99.90;;;;;;5071295;28;20200;-87
2020/12/01 11:47:31;;;;;;;0.50;0.50;;;4.10;99.90;;;;;;5071529;28;20269;-88
2020/12/01 11:49:57;;;;;;;0.50;0.50;;;4.10;99.90;;;;;;5070391;28;20204;-87
2020/12/01 11:52:23;;;;;;;0.50;0.50;;;4.10;99.90;;;;;;5070618;28;20261;-86
2020/12/01 11:54:49;;;;;;;0.50;0.50;;;4.10;99.90;;;;;;5071198;28;20235;-87
2020/12/01 11:57:15;;;;;;;0.40;0.40;;;4.10;99.90;;;;;;5071495;28;20608;-87
2020/12/01 11:59:41;;;;;;;0.50;0.50;;;4.10;99.90;;;;;;5071710;28;20210;-87
2020/12/01 12:02:08;;;;;;;0.40;0.40;;;4.10;99.90;;;;;;5070994;28;20230;-87
2020/12/01 12:04:34;;;;;;;0.50;0.50;;;4.10;99.90;;;;;;5071369;28;20250;-88
2020/12/01 12:07:01;;;;;;;0.50;0.50;;;4.10;99.90;;;;;;5071061;28;20233;-88
2020/12/01 12:09:27;;;;;;;0.45;0.45;;;4.10;99.90;;;;;;5071481;28;20261;-88
2020/12/01 12:11:53;;;;;;;0.50;0.50;;;4.10;99.90;;;;;;5070324;28;20224;-87
2020/12/01 12:14:19;;;;;;;0.50;0.50;;;4.10;99.90;;;;;;5071099;28;20603;-87
2020/12/01 12:16:46;;;;;;;0.40;0.40;;;4.10;99.90;;;;;;5071720;28;20245;-87
2020/12/01 12:19:12;;;;;;;0.40;0.40;;;4.10;99.90;;;;;;5071735;28;20210;-87
2020/12/01 12:21:39;;;;;;;0.50;0.50;;;4.10;99.90;;;;;;5071814;28;20678;-87
2020/12/01 12:24:05;;;;;;;0.50;0.50;;;4.10;99.90;;;;;;5071722;28;20258;-87
2020/12/01 12:26:31;;;;;;;0.40;0.40;;;4.10;99.90;;;;;;5071972;28;20368;-87
2020/12/01 12:28:57;;;;;;;0.50;0.50;;;4.00;99.90;;;;;;5071592;28;20203;-87
2020/12/01 12:31:23;;;;;;;0.50;0.50;;;4.00;99.90;;;;;;5071950;28;20559;-88
2020/12/01 12:33:50;;;;;;;0.43;0.43;;;4.00;99.90;;;;;;5071742;28;20228;-87
2020/12/01 12:36:16;;;;;;;0.40;0.40;;;4.00;99.90;;;;;;5071808;28;20265;-87
2020/12/01 12:38:43;;;;;;;0.40;0.40;;;4.00;99.90;;;;;;5071634;28;20228;-87
2020/12/01 12:41:09;;;;;;;0.50;0.50;;;4.00;99.90;;;;;;5071559;28;20203;-86
2020/12/01 12:43:36;;;;;;;0.40;0.40;;;4.00;99.90;;;;;;5072051;28;20207;-87
2020/12/01 12:46:02;;;;;;;0.50;0.50;;;4.00;99.90;;;;;;5071810;28;20204;-86
2020/12/01 12:48:29;;;;;;;0.50;0.50;;;4.00;99.90;;;;;;5071562;28;20211;-87
2020/12/01 12:50:56;;;;;;;0.50;0.50;;;4.00;99.90;;;;;;5071769;28;20211;-87
2020/12/01 12:53:22;;;;;;;0.50;0.50;;;3.80;99.90;;;;;;5071697;28;20211;-86
2020/12/01 12:55:49;;;;;;;0.50;0.50;;;3.80;99.90;;;;;;5071496;28;20249;-87
2020/12/01 12:58:15;;;;;;;0.50;0.50;;;3.80;99.90;;;;;;5071629;28;20229;-86
2020/12/01 13:00:41;;;;;;;0.50;0.50;;;3.80;99.90;;;;;;5071446;28;20199;-87
2020/12/01 13:03:08;;;;;;;0.50;0.50;;;3.80;99.90;;;;;;5071409;28;20215;-86
2020/12/01 13:05:34;;;;;;;0.50;0.50;;;3.80;99.90;;;;;;5071590;28;20207;-86
2020/12/01 13:08:00;;;;;;;0.50;0.50;;;3.70;99.90;;;;;;5071204;28;20257;-87
2020/12/01 13:10:26;;;;;;;0.50;0.50;;;3.70;99.90;;;;;;5071191;28;20356;-86
2020/12/01 13:12:53;;;;;;;0.50;0.50;;;3.70;99.90;;;;;;5071499;28;20278;-86
2020/12/01 13:15:21;;;;;;;0.50;0.50;;;3.60;99.90;;;;;;5073386;28;20242;-86
2020/12/01 13:17:47;;;;;;;0.43;0.43;;;3.60;99.90;;;;;;5075119;28;20235;-87
2020/12/01 13:20:17;;;;;;;0.50;0.50;;;3.60;99.90;;;;;;5075021;28;20203;-86
2020/12/01 13:22:43;;;;;;;0.47;0.47;;;3.60;99.90;;;;;;5075269;28;20199;-86
2020/12/01 13:25:09;;;;;;;0.50;0.50;;;3.60;99.90;;;;;;5074638;28;20852;-87
2020/12/01 13:27:39;;;;;;;0.45;0.45;;;3.60;99.90;;;;;;5074707;28;20536;-85
2020/12/01 13:30:07;;;;;;;0.50;0.50;;;3.60;99.90;;;;;;5074839;28;20215;-86
2020/12/01 13:32:33;;;;;;;0.40;0.40;;;3.70;99.90;;;;;;5074924;28;20226;-86
2020/12/01 13:35:00;;;;;;;0.50;0.50;;;3.60;99.90;;;;;;5074705;28;20602;-86
2020/12/01 13:37:26;;;;;;;0.50;0.50;;;3.70;99.90;;;;;;5074933;28;20648;-86
2020/12/01 13:39:52;;;;;;;0.50;0.50;;;3.70;99.90;;;;;;5074704;28;20216;-86